BRX7503 ENGM-ESSB
Flight info
| Callsign | BRX7503 |
|---|---|
| Flight time | 0h 44m |
| Altitude | 23000 |
| Route | MASEV Z183 LEGPO DCT ARS |
| Aircraft | DH8D/M-SDE2E3FGRY/H |
Departure
| Time | 2026-05-04 23:48 |
|---|---|
| Airport | Oslo-Gardermoen International Airport (ENGM) |
Arrival
| Time | 2026-05-05 00:32 |
|---|---|
| Airport | Stockholm-Bromma Airport (ESSB) |
| Time | Latitude | Longitude | Altitude | Speed | Heading |
|---|---|---|---|---|---|
| 2026-05-04 23:15 | 60.19599 | 11.09058 | 684 ft | 0 kts | 165° |
| 2026-05-04 23:40 | 60.19592 | 11.09058 | 684 ft | 1 kts | 193° |
| 2026-05-04 23:40 | 60.19589 | 11.09038 | 684 ft | 1 kts | 286° |
| 2026-05-04 23:40 | 60.19592 | 11.09019 | 684 ft | 1 kts | 290° |
| 2026-05-04 23:41 | 60.19599 | 11.08982 | 684 ft | 4 kts | 290° |
| 2026-05-04 23:41 | 60.19582 | 11.08931 | 684 ft | 7 kts | 197° |
| 2026-05-04 23:41 | 60.19528 | 11.08900 | 682 ft | 8 kts | 197° |
| 2026-05-04 23:41 | 60.19499 | 11.08813 | 682 ft | 8 kts | 275° |
| 2026-05-04 23:42 | 60.19513 | 11.08702 | 680 ft | 8 kts | 287° |
| 2026-05-04 23:42 | 60.19528 | 11.08602 | 679 ft | 6 kts | 286° |
| 2026-05-04 23:42 | 60.19542 | 11.08499 | 680 ft | 8 kts | 285° |
| 2026-05-04 23:42 | 60.19541 | 11.08381 | 680 ft | 10 kts | 228° |
| 2026-05-04 23:43 | 60.19458 | 11.08318 | 677 ft | 15 kts | 195° |
| 2026-05-04 23:43 | 60.19343 | 11.08252 | 672 ft | 17 kts | 195° |
| 2026-05-04 23:43 | 60.19236 | 11.08190 | 671 ft | 15 kts | 196° |
| 2026-05-04 23:43 | 60.19136 | 11.08133 | 669 ft | 13 kts | 197° |
| 2026-05-04 23:44 | 60.19058 | 11.08086 | 670 ft | 10 kts | 196° |
| 2026-05-04 23:44 | 60.18982 | 11.08043 | 670 ft | 13 kts | 195° |
| 2026-05-04 23:44 | 60.18879 | 11.07983 | 672 ft | 15 kts | 197° |
| 2026-05-04 23:44 | 60.18784 | 11.07930 | 671 ft | 13 kts | 195° |
| 2026-05-04 23:45 | 60.18693 | 11.07877 | 669 ft | 13 kts | 196° |
| 2026-05-04 23:45 | 60.18608 | 11.07829 | 669 ft | 11 kts | 196° |
| 2026-05-04 23:45 | 60.18559 | 11.07755 | 669 ft | 8 kts | 263° |
| 2026-05-04 23:45 | 60.18568 | 11.07672 | 669 ft | 0 kts | 287° |
| 2026-05-04 23:47 | 60.18571 | 11.07653 | 669 ft | 4 kts | 286° |
| 2026-05-04 23:47 | 60.18584 | 11.07573 | 671 ft | 9 kts | 294° |
| 2026-05-04 23:47 | 60.18626 | 11.07485 | 672 ft | 9 kts | 335° |
| 2026-05-04 23:47 | 60.18686 | 11.07484 | 673 ft | 2 kts | 15° |
| 2026-05-04 23:48 | 60.18754 | 11.07523 | 672 ft | 39 kts | 15° |
| 2026-05-04 23:48 | 60.19324 | 11.07849 | 675 ft | 122 kts | 16° |
| 2026-05-04 23:48 | 60.20274 | 11.08420 | 816 ft | 154 kts | 12° |
| 2026-05-04 23:48 | 60.21310 | 11.09042 | 1375 ft | 158 kts | 14° |
| 2026-05-04 23:49 | 60.22313 | 11.09693 | 2198 ft | 149 kts | 15° |
| 2026-05-04 23:49 | 60.23267 | 11.10070 | 2941 ft | 139 kts | 8° |
| 2026-05-04 23:49 | 60.24189 | 11.10597 | 3510 ft | 139 kts | 15° |
| 2026-05-04 23:49 | 60.25208 | 11.11264 | 3509 ft | 177 kts | 14° |
| 2026-05-04 23:50 | 60.26498 | 11.11488 | 3666 ft | 193 kts | 353° |
| 2026-05-04 23:50 | 60.27853 | 11.11107 | 4118 ft | 200 kts | 351° |
| 2026-05-04 23:50 | 60.29241 | 11.10689 | 4617 ft | 204 kts | 351° |
| 2026-05-04 23:50 | 60.30640 | 11.10884 | 5135 ft | 210 kts | 22° |
| 2026-05-04 23:51 | 60.31628 | 11.13044 | 5548 ft | 224 kts | 66° |
| 2026-05-04 23:51 | 60.31907 | 11.16193 | 6044 ft | 230 kts | 78° |
| 2026-05-04 23:51 | 60.32228 | 11.19321 | 6600 ft | 230 kts | 71° |
| 2026-05-04 23:51 | 60.32686 | 11.22432 | 7091 ft | 233 kts | 68° |
| 2026-05-04 23:52 | 60.33225 | 11.25534 | 7615 ft | 236 kts | 66° |
| 2026-05-04 23:52 | 60.33826 | 11.28621 | 8138 ft | 238 kts | 64° |
| 2026-05-04 23:52 | 60.34474 | 11.31707 | 8630 ft | 242 kts | 63° |
| 2026-05-04 23:52 | 60.35162 | 11.34807 | 9138 ft | 245 kts | 62° |
| 2026-05-04 23:53 | 60.35884 | 11.37945 | 9639 ft | 248 kts | 61° |
| 2026-05-04 23:53 | 60.36634 | 11.41123 | 10078 ft | 254 kts | 62° |
| 2026-05-04 23:53 | 60.37401 | 11.44323 | 10534 ft | 261 kts | 61° |
| 2026-05-04 23:53 | 60.38250 | 11.47814 | 10462 ft | 285 kts | 61° |
| 2026-05-04 23:54 | 60.39130 | 11.51409 | 10782 ft | 292 kts | 61° |
| 2026-05-04 23:54 | 60.40041 | 11.55103 | 11150 ft | 297 kts | 60° |
| 2026-05-04 23:54 | 60.40987 | 11.58934 | 11599 ft | 302 kts | 61° |
| 2026-05-04 23:54 | 60.41599 | 11.63011 | 11958 ft | 313 kts | 86° |
| 2026-05-04 23:55 | 60.41113 | 11.67206 | 12422 ft | 312 kts | 118° |
| 2026-05-04 23:55 | 60.40054 | 11.71094 | 12844 ft | 314 kts | 124° |
| 2026-05-04 23:55 | 60.37923 | 11.78966 | 13659 ft | 325 kts | 123° |
| 2026-05-04 23:56 | 60.36838 | 11.83027 | 14059 ft | 328 kts | 124° |
| 2026-05-04 23:56 | 60.35744 | 11.87107 | 14377 ft | 333 kts | 124° |
| 2026-05-04 23:56 | 60.34638 | 11.91226 | 14644 ft | 339 kts | 124° |
| 2026-05-04 23:56 | 60.33518 | 11.95389 | 15013 ft | 341 kts | 124° |
| 2026-05-04 23:57 | 60.32381 | 11.99611 | 15420 ft | 341 kts | 125° |
| 2026-05-04 23:57 | 60.31239 | 12.03832 | 15766 ft | 344 kts | 125° |
| 2026-05-04 23:57 | 60.30082 | 12.08100 | 16038 ft | 348 kts | 126° |
| 2026-05-04 23:57 | 60.28905 | 12.12420 | 16195 ft | 357 kts | 126° |
| 2026-05-04 23:58 | 60.27712 | 12.16778 | 16397 ft | 362 kts | 126° |
| 2026-05-04 23:58 | 60.26466 | 12.21311 | 16579 ft | 367 kts | 126° |
| 2026-05-04 23:58 | 60.25240 | 12.25765 | 16786 ft | 372 kts | 126° |
| 2026-05-04 23:58 | 60.23974 | 12.30350 | 16988 ft | 375 kts | 126° |
| 2026-05-04 23:59 | 60.22700 | 12.34947 | 17189 ft | 378 kts | 126° |
| 2026-05-04 23:59 | 60.21417 | 12.39580 | 17392 ft | 381 kts | 126° |
| 2026-05-04 23:59 | 60.20129 | 12.44226 | 17585 ft | 383 kts | 126° |
| 2026-05-04 23:59 | 60.18825 | 12.48923 | 17790 ft | 385 kts | 127° |
| 2026-05-05 00:00 | 60.17653 | 12.53772 | 17951 ft | 394 kts | 115° |
| 2026-05-05 00:00 | 60.17400 | 12.55572 | 18010 ft | 398 kts | 107° |
| 2026-05-05 00:00 | 60.16795 | 12.64832 | 18354 ft | 402 kts | 99° |
| 2026-05-05 00:00 | 60.16472 | 12.70415 | 18529 ft | 403 kts | 101° |
| 2026-05-05 00:01 | 60.16135 | 12.75994 | 18696 ft | 404 kts | 101° |
| 2026-05-05 00:01 | 60.15786 | 12.81639 | 18729 ft | 409 kts | 101° |
| 2026-05-05 00:01 | 60.15422 | 12.87333 | 18753 ft | 413 kts | 101° |
| 2026-05-05 00:01 | 60.15045 | 12.93082 | 18735 ft | 418 kts | 102° |
| 2026-05-05 00:02 | 60.14659 | 12.98847 | 18737 ft | 421 kts | 102° |
| 2026-05-05 00:02 | 60.14263 | 13.04720 | 18753 ft | 424 kts | 101° |
| 2026-05-05 00:02 | 60.13864 | 13.10566 | 18775 ft | 426 kts | 101° |
| 2026-05-05 00:02 | 60.13458 | 13.16476 | 18741 ft | 428 kts | 101° |
| 2026-05-05 00:03 | 60.13052 | 13.22364 | 18730 ft | 430 kts | 102° |
| 2026-05-05 00:03 | 60.12640 | 13.28318 | 18731 ft | 431 kts | 102° |
| 2026-05-05 00:03 | 60.12226 | 13.34279 | 18755 ft | 431 kts | 102° |
| 2026-05-05 00:03 | 60.11811 | 13.40234 | 18758 ft | 431 kts | 102° |
| 2026-05-05 00:04 | 60.11392 | 13.46207 | 18738 ft | 432 kts | 101° |
| 2026-05-05 00:04 | 60.10977 | 13.52099 | 18738 ft | 432 kts | 102° |
| 2026-05-05 00:04 | 60.10555 | 13.58072 | 18742 ft | 432 kts | 101° |
| 2026-05-05 00:04 | 60.10134 | 13.64023 | 18731 ft | 432 kts | 101° |
| 2026-05-05 00:05 | 60.09707 | 13.70041 | 18778 ft | 431 kts | 102° |
| 2026-05-05 00:05 | 60.09284 | 13.75966 | 18746 ft | 432 kts | 102° |
| 2026-05-05 00:05 | 60.08857 | 13.81916 | 18748 ft | 433 kts | 102° |
| 2026-05-05 00:05 | 60.08423 | 13.87904 | 18741 ft | 432 kts | 102° |
| 2026-05-05 00:06 | 60.08020 | 13.93413 | 18729 ft | 433 kts | 102° |
| 2026-05-05 00:06 | 60.07581 | 13.99422 | 18718 ft | 433 kts | 102° |
| 2026-05-05 00:06 | 60.07146 | 14.05325 | 18707 ft | 432 kts | 102° |
| 2026-05-05 00:06 | 60.06707 | 14.11262 | 18703 ft | 432 kts | 102° |
| 2026-05-05 00:07 | 60.06264 | 14.17218 | 18694 ft | 431 kts | 102° |
| 2026-05-05 00:07 | 60.05821 | 14.23124 | 18691 ft | 431 kts | 102° |
| 2026-05-05 00:07 | 60.05380 | 14.28996 | 18685 ft | 431 kts | 102° |
| 2026-05-05 00:07 | 60.04927 | 14.34995 | 18680 ft | 431 kts | 102° |
| 2026-05-05 00:08 | 60.04475 | 14.40913 | 18688 ft | 431 kts | 102° |
| 2026-05-05 00:08 | 60.03762 | 14.46644 | 18678 ft | 425 kts | 114° |
| 2026-05-05 00:08 | 60.02673 | 14.52138 | 18692 ft | 423 kts | 118° |
| 2026-05-05 00:08 | 60.01568 | 14.57551 | 18693 ft | 424 kts | 118° |
| 2026-05-05 00:09 | 60.00470 | 14.63020 | 18692 ft | 423 kts | 117° |
| 2026-05-05 00:09 | 59.99437 | 14.68181 | 18706 ft | 423 kts | 118° |
| 2026-05-05 00:09 | 59.98345 | 14.73619 | 18680 ft | 422 kts | 118° |
| 2026-05-05 00:09 | 59.97250 | 14.79069 | 18696 ft | 422 kts | 118° |
| 2026-05-05 00:10 | 59.96162 | 14.84475 | 18687 ft | 421 kts | 118° |
| 2026-05-05 00:10 | 59.95074 | 14.89875 | 18692 ft | 421 kts | 118° |
| 2026-05-05 00:10 | 59.93974 | 14.95326 | 18678 ft | 421 kts | 118° |
| 2026-05-05 00:10 | 59.92889 | 15.00694 | 18698 ft | 421 kts | 118° |
| 2026-05-05 00:11 | 59.91788 | 15.06119 | 18689 ft | 421 kts | 118° |
| 2026-05-05 00:11 | 59.90688 | 15.11532 | 18707 ft | 420 kts | 118° |
| 2026-05-05 00:11 | 59.89587 | 15.16931 | 18693 ft | 420 kts | 118° |
| 2026-05-05 00:11 | 59.88486 | 15.22317 | 18687 ft | 421 kts | 118° |
| 2026-05-05 00:12 | 59.87386 | 15.27681 | 18682 ft | 421 kts | 118° |
| 2026-05-05 00:12 | 59.86285 | 15.33039 | 18697 ft | 421 kts | 118° |
| 2026-05-05 00:12 | 59.85166 | 15.38470 | 18686 ft | 421 kts | 118° |
| 2026-05-05 00:12 | 59.84067 | 15.43788 | 18690 ft | 420 kts | 118° |
| 2026-05-05 00:13 | 59.82951 | 15.49186 | 18617 ft | 420 kts | 118° |
| 2026-05-05 00:13 | 59.81827 | 15.54594 | 18226 ft | 424 kts | 118° |
| 2026-05-05 00:13 | 59.80701 | 15.59953 | 17725 ft | 422 kts | 118° |
| 2026-05-05 00:13 | 59.79575 | 15.65314 | 17296 ft | 416 kts | 119° |
| 2026-05-05 00:14 | 59.78603 | 15.69950 | 16879 ft | 410 kts | 119° |
| 2026-05-05 00:14 | 59.77509 | 15.75165 | 16440 ft | 406 kts | 118° |
| 2026-05-05 00:14 | 59.76432 | 15.80289 | 15983 ft | 401 kts | 118° |
| 2026-05-05 00:14 | 59.75367 | 15.85356 | 15555 ft | 397 kts | 118° |
| 2026-05-05 00:15 | 59.74314 | 15.90357 | 15127 ft | 393 kts | 118° |
| 2026-05-05 00:15 | 59.73265 | 15.95322 | 14711 ft | 389 kts | 118° |
| 2026-05-05 00:15 | 59.72224 | 16.00233 | 14270 ft | 386 kts | 118° |
| 2026-05-05 00:15 | 59.71188 | 16.05109 | 13851 ft | 383 kts | 118° |
| 2026-05-05 00:16 | 59.70157 | 16.09948 | 13431 ft | 379 kts | 118° |
| 2026-05-05 00:16 | 59.69132 | 16.14736 | 13018 ft | 376 kts | 118° |
| 2026-05-05 00:16 | 59.68110 | 16.19505 | 12596 ft | 373 kts | 118° |
| 2026-05-05 00:16 | 59.67109 | 16.24162 | 12188 ft | 370 kts | 118° |
| 2026-05-05 00:17 | 59.66101 | 16.28838 | 11780 ft | 366 kts | 118° |
| 2026-05-05 00:17 | 59.65122 | 16.33374 | 11379 ft | 360 kts | 117° |
| 2026-05-05 00:17 | 59.64154 | 16.37875 | 10979 ft | 355 kts | 117° |
| 2026-05-05 00:17 | 59.63195 | 16.42340 | 10583 ft | 350 kts | 117° |
| 2026-05-05 00:18 | 59.62268 | 16.46680 | 10208 ft | 336 kts | 117° |
| 2026-05-05 00:18 | 59.61401 | 16.50847 | 9852 ft | 321 kts | 116° |
| 2026-05-05 00:18 | 59.60583 | 16.54865 | 9514 ft | 306 kts | 116° |
| 2026-05-05 00:18 | 59.59799 | 16.58708 | 9187 ft | 297 kts | 116° |
| 2026-05-05 00:19 | 59.59020 | 16.62423 | 8876 ft | 295 kts | 116° |
| 2026-05-05 00:19 | 59.58029 | 16.65994 | 8325 ft | 295 kts | 134° |
| 2026-05-05 00:19 | 59.56692 | 16.68883 | 8055 ft | 286 kts | 140° |
| 2026-05-05 00:19 | 59.55337 | 16.71721 | 7833 ft | 280 kts | 139° |
| 2026-05-05 00:20 | 59.54025 | 16.74504 | 7635 ft | 273 kts | 139° |
| 2026-05-05 00:20 | 59.52760 | 16.77183 | 7464 ft | 266 kts | 139° |
| 2026-05-05 00:20 | 59.51522 | 16.79802 | 7404 ft | 255 kts | 139° |
| 2026-05-05 00:20 | 59.50318 | 16.82343 | 7342 ft | 250 kts | 139° |
| 2026-05-05 00:21 | 59.49127 | 16.84839 | 7214 ft | 248 kts | 140° |
| 2026-05-05 00:21 | 59.47940 | 16.87320 | 7061 ft | 247 kts | 140° |
| 2026-05-05 00:21 | 59.46773 | 16.89758 | 6910 ft | 246 kts | 139° |
| 2026-05-05 00:21 | 59.45599 | 16.92207 | 6747 ft | 247 kts | 139° |
| 2026-05-05 00:22 | 59.44427 | 16.94646 | 6586 ft | 248 kts | 139° |
| 2026-05-05 00:22 | 59.43236 | 16.97124 | 6416 ft | 248 kts | 139° |
| 2026-05-05 00:22 | 59.42038 | 16.99613 | 6248 ft | 250 kts | 139° |
| 2026-05-05 00:22 | 59.40840 | 17.02098 | 6087 ft | 253 kts | 139° |
| 2026-05-05 00:23 | 59.39617 | 17.04632 | 5915 ft | 257 kts | 139° |
| 2026-05-05 00:23 | 59.38388 | 17.07176 | 5742 ft | 260 kts | 138° |
| 2026-05-05 00:23 | 59.37120 | 17.09802 | 5562 ft | 262 kts | 139° |
| 2026-05-05 00:23 | 59.35846 | 17.12440 | 5394 ft | 264 kts | 138° |
| 2026-05-05 00:24 | 59.34577 | 17.15065 | 5215 ft | 265 kts | 138° |
| 2026-05-05 00:24 | 59.33316 | 17.17676 | 5031 ft | 263 kts | 138° |
| 2026-05-05 00:24 | 59.32083 | 17.20247 | 4833 ft | 260 kts | 136° |
| 2026-05-05 00:24 | 59.31162 | 17.23303 | 4528 ft | 264 kts | 105° |
| 2026-05-05 00:25 | 59.31252 | 17.26790 | 4384 ft | 255 kts | 65° |
| 2026-05-05 00:25 | 59.32166 | 17.29725 | 4257 ft | 252 kts | 48° |
| 2026-05-05 00:25 | 59.33225 | 17.32450 | 4094 ft | 256 kts | 47° |
| 2026-05-05 00:25 | 59.34320 | 17.35223 | 3919 ft | 259 kts | 47° |
| 2026-05-05 00:26 | 59.35435 | 17.38034 | 3738 ft | 260 kts | 47° |
| 2026-05-05 00:26 | 59.36536 | 17.40811 | 3562 ft | 261 kts | 47° |
| 2026-05-05 00:26 | 59.37662 | 17.43646 | 3386 ft | 259 kts | 46° |
| 2026-05-05 00:26 | 59.38761 | 17.46411 | 3206 ft | 255 kts | 47° |
| 2026-05-05 00:27 | 59.39838 | 17.49120 | 3023 ft | 247 kts | 47° |
| 2026-05-05 00:27 | 59.40878 | 17.51735 | 2923 ft | 237 kts | 47° |
| 2026-05-05 00:27 | 59.41850 | 17.54184 | 3069 ft | 224 kts | 46° |
| 2026-05-05 00:27 | 59.42808 | 17.56617 | 3259 ft | 227 kts | 46° |
| 2026-05-05 00:28 | 59.43776 | 17.59083 | 3415 ft | 229 kts | 47° |
| 2026-05-05 00:28 | 59.44659 | 17.61680 | 3537 ft | 234 kts | 52° |
| 2026-05-05 00:28 | 59.45547 | 17.64467 | 3508 ft | 245 kts | 54° |
| 2026-05-05 00:28 | 59.46013 | 17.67683 | 3436 ft | 238 kts | 94° |
| 2026-05-05 00:29 | 59.45393 | 17.70450 | 3441 ft | 215 kts | 142° |
| 2026-05-05 00:29 | 59.44124 | 17.71869 | 3372 ft | 208 kts | 165° |
| 2026-05-05 00:29 | 59.42912 | 17.73340 | 3018 ft | 206 kts | 146° |
| 2026-05-05 00:29 | 59.41972 | 17.75426 | 2628 ft | 198 kts | 131° |
| 2026-05-05 00:30 | 59.41230 | 17.77613 | 2304 ft | 189 kts | 129° |
| 2026-05-05 00:30 | 59.40546 | 17.79708 | 1981 ft | 175 kts | 130° |
| 2026-05-05 00:30 | 59.39906 | 17.81605 | 1708 ft | 159 kts | 131° |
| 2026-05-05 00:30 | 59.39308 | 17.83313 | 1408 ft | 146 kts | 133° |
| 2026-05-05 00:31 | 59.38731 | 17.84883 | 1206 ft | 141 kts | 133° |
| 2026-05-05 00:31 | 59.38188 | 17.86479 | 1027 ft | 139 kts | 131° |
| 2026-05-05 00:31 | 59.37638 | 17.88021 | 800 ft | 137 kts | 131° |
| 2026-05-05 00:31 | 59.37098 | 17.89537 | 620 ft | 135 kts | 131° |
| 2026-05-05 00:32 | 59.36566 | 17.91029 | 399 ft | 134 kts | 130° |
| 2026-05-05 00:32 | 59.36037 | 17.92522 | 183 ft | 132 kts | 131° |
| 2026-05-05 00:32 | 59.35524 | 17.93946 | 44 ft | 116 kts | 126° |
| 2026-05-05 00:32 | 59.35231 | 17.94737 | 42 ft | 30 kts | 124° |
| 2026-05-05 00:33 | 59.35168 | 17.94919 | 44 ft | 10 kts | 118° |
| 2026-05-05 00:33 | 59.35192 | 17.95016 | 46 ft | 8 kts | 36° |
| 2026-05-05 00:33 | 59.35244 | 17.95087 | 46 ft | 9 kts | 36° |
| 2026-05-05 00:33 | 59.35282 | 17.95106 | 46 ft | 8 kts | 326° |
| 2026-05-05 00:34 | 59.35303 | 17.94995 | 46 ft | 9 kts | 275° |
| 2026-05-05 00:34 | 59.35314 | 17.94870 | 46 ft | 10 kts | 294° |
| 2026-05-05 00:34 | 59.35354 | 17.94752 | 44 ft | 10 kts | 304° |
| 2026-05-05 00:34 | 59.35398 | 17.94626 | 42 ft | 11 kts | 304° |
| 2026-05-05 00:35 | 59.35443 | 17.94495 | 39 ft | 11 kts | 304° |
| 2026-05-05 00:35 | 59.35490 | 17.94362 | 36 ft | 12 kts | 304° |
| 2026-05-05 00:35 | 59.35535 | 17.94233 | 36 ft | 10 kts | 304° |
| 2026-05-05 00:35 | 59.35586 | 17.94152 | 36 ft | 9 kts | 343° |
| 2026-05-05 00:36 | 59.35644 | 17.94121 | 37 ft | 8 kts | 345° |
| 2026-05-05 00:36 | 59.35697 | 17.94132 | 36 ft | 8 kts | 35° |
| 2026-05-05 00:36 | 59.35709 | 17.94193 | 36 ft | 3 kts | 102° |
| 2026-05-05 00:36 | 59.35707 | 17.94243 | 36 ft | 4 kts | 87° |
| 2026-05-05 00:37 | 59.35708 | 17.94288 | 36 ft | 1 kts | 88° |
| 2026-05-05 00:37 | 59.35708 | 17.94298 | 36 ft | 0 kts | 88° |